sensor_id;sensor_type;location;lat;lon;timestamp;temperature;humidity
6627;DHT22;3349;49.830;8.748;2024-02-21T00:00:45;8.40;86.40
6627;DHT22;3349;49.830;8.748;2024-02-21T00:03:12;8.40;86.70
6627;DHT22;3349;49.830;8.748;2024-02-21T00:05:38;8.30;86.80
6627;DHT22;3349;49.830;8.748;2024-02-21T00:08:05;8.40;87.00
6627;DHT22;3349;49.830;8.748;2024-02-21T00:10:32;8.40;86.80
6627;DHT22;3349;49.830;8.748;2024-02-21T00:13:00;8.40;86.70
6627;DHT22;3349;49.830;8.748;2024-02-21T00:15:26;8.30;86.70
6627;DHT22;3349;49.830;8.748;2024-02-21T00:17:53;8.40;87.10
6627;DHT22;3349;49.830;8.748;2024-02-21T00:20:20;8.30;86.60
6627;DHT22;3349;49.830;8.748;2024-02-21T00:22:47;8.30;86.60
6627;DHT22;3349;49.830;8.748;2024-02-21T00:25:13;8.30;86.60
6627;DHT22;3349;49.830;8.748;2024-02-21T00:27:40;8.30;86.70
6627;DHT22;3349;49.830;8.748;2024-02-21T00:30:09;8.30;86.70
6627;DHT22;3349;49.830;8.748;2024-02-21T00:32:36;8.40;86.70
6627;DHT22;3349;49.830;8.748;2024-02-21T00:35:03;8.30;86.60
6627;DHT22;3349;49.830;8.748;2024-02-21T00:37:31;8.40;86.70
6627;DHT22;3349;49.830;8.748;2024-02-21T00:39:57;8.30;86.60
6627;DHT22;3349;49.830;8.748;2024-02-21T00:42:24;8.40;86.20
6627;DHT22;3349;49.830;8.748;2024-02-21T00:44:51;8.40;86.20
6627;DHT22;3349;49.830;8.748;2024-02-21T00:47:19;8.40;86.10
6627;DHT22;3349;49.830;8.748;2024-02-21T00:49:45;8.40;85.90
6627;DHT22;3349;49.830;8.748;2024-02-21T00:52:12;8.40;85.90
6627;DHT22;3349;49.830;8.748;2024-02-21T00:54:38;8.40;85.40
6627;DHT22;3349;49.830;8.748;2024-02-21T00:57:05;8.40;85.50
6627;DHT22;3349;49.830;8.748;2024-02-21T00:59:32;8.40;86.10
6627;DHT22;3349;49.830;8.748;2024-02-21T01:01:58;8.30;86.10
6627;DHT22;3349;49.830;8.748;2024-02-21T01:04:27;8.30;86.20
6627;DHT22;3349;49.830;8.748;2024-02-21T01:06:53;8.30;86.60
6627;DHT22;3349;49.830;8.748;2024-02-21T01:09:20;8.30;85.90
6627;DHT22;3349;49.830;8.748;2024-02-21T01:11:46;8.30;86.00
6627;DHT22;3349;49.830;8.748;2024-02-21T01:14:13;8.30;86.10
6627;DHT22;3349;49.830;8.748;2024-02-21T01:16:40;8.20;86.10
6627;DHT22;3349;49.830;8.748;2024-02-21T01:19:06;8.20;86.50
6627;DHT22;3349;49.830;8.748;2024-02-21T01:21:34;8.20;86.50
6627;DHT22;3349;49.830;8.748;2024-02-21T01:24:01;8.10;86.40
6627;DHT22;3349;49.830;8.748;2024-02-21T01:26:28;8.10;86.50
6627;DHT22;3349;49.830;8.748;2024-02-21T01:28:54;8.10;86.80
6627;DHT22;3349;49.830;8.748;2024-02-21T01:31:21;8.10;87.50
6627;DHT22;3349;49.830;8.748;2024-02-21T01:33:48;8.10;87.90
6627;DHT22;3349;49.830;8.748;2024-02-21T01:36:14;8.10;88.30
6627;DHT22;3349;49.830;8.748;2024-02-21T01:38:42;8.00;89.20
6627;DHT22;3349;49.830;8.748;2024-02-21T01:41:09;8.00;90.10
6627;DHT22;3349;49.830;8.748;2024-02-21T01:43:36;8.00;90.50
6627;DHT22;3349;49.830;8.748;2024-02-21T01:46:03;8.00;90.70
6627;DHT22;3349;49.830;8.748;2024-02-21T01:48:30;8.00;90.80
6627;DHT22;3349;49.830;8.748;2024-02-21T01:50:56;8.00;90.90
6627;DHT22;3349;49.830;8.748;2024-02-21T01:53:27;8.00;91.10
6627;DHT22;3349;49.830;8.748;2024-02-21T01:55:55;8.00;90.90
6627;DHT22;3349;49.830;8.748;2024-02-21T01:58:23;8.00;91.00
6627;DHT22;3349;49.830;8.748;2024-02-21T02:00:50;8.00;91.00
6627;DHT22;3349;49.830;8.748;2024-02-21T02:03:17;8.00;91.20
6627;DHT22;3349;49.830;8.748;2024-02-21T02:05:44;8.00;91.00
6627;DHT22;3349;49.830;8.748;2024-02-21T02:08:11;8.00;91.00
6627;DHT22;3349;49.830;8.748;2024-02-21T02:10:39;8.00;91.10
6627;DHT22;3349;49.830;8.748;2024-02-21T02:13:07;8.00;91.10
6627;DHT22;3349;49.830;8.748;2024-02-21T02:15:38;8.00;91.30
6627;DHT22;3349;49.830;8.748;2024-02-21T02:18:05;8.00;91.60
6627;DHT22;3349;49.830;8.748;2024-02-21T02:20:32;8.00;91.40
6627;DHT22;3349;49.830;8.748;2024-02-21T02:22:59;8.00;91.30
6627;DHT22;3349;49.830;8.748;2024-02-21T02:25:27;8.00;91.30
6627;DHT22;3349;49.830;8.748;2024-02-21T02:27:54;8.00;91.40
6627;DHT22;3349;49.830;8.748;2024-02-21T02:30:20;8.00;91.60
6627;DHT22;3349;49.830;8.748;2024-02-21T02:32:47;8.00;91.60
6627;DHT22;3349;49.830;8.748;2024-02-21T02:35:14;8.00;91.40
6627;DHT22;3349;49.830;8.748;2024-02-21T02:37:47;8.00;91.40
6627;DHT22;3349;49.830;8.748;2024-02-21T02:40:14;7.90;91.20
6627;DHT22;3349;49.830;8.748;2024-02-21T02:42:42;7.90;91.30
6627;DHT22;3349;49.830;8.748;2024-02-21T02:45:10;7.90;91.50
6627;DHT22;3349;49.830;8.748;2024-02-21T02:47:36;7.90;91.80
6627;DHT22;3349;49.830;8.748;2024-02-21T02:50:04;7.90;91.40
6627;DHT22;3349;49.830;8.748;2024-02-21T02:52:31;7.90;91.50
6627;DHT22;3349;49.830;8.748;2024-02-21T02:54:58;7.90;91.40
6627;DHT22;3349;49.830;8.748;2024-02-21T02:57:25;7.90;91.30
6627;DHT22;3349;49.830;8.748;2024-02-21T02:59:53;7.80;91.50
6627;DHT22;3349;49.830;8.748;2024-02-21T03:02:19;7.80;91.70
6627;DHT22;3349;49.830;8.748;2024-02-21T03:04:46;7.80;91.80
6627;DHT22;3349;49.830;8.748;2024-02-21T03:07:14;7.80;92.00
6627;DHT22;3349;49.830;8.748;2024-02-21T03:09:41;7.80;92.00
6627;DHT22;3349;49.830;8.748;2024-02-21T03:12:09;7.70;92.10
6627;DHT22;3349;49.830;8.748;2024-02-21T03:14:35;7.70;92.20
6627;DHT22;3349;49.830;8.748;2024-02-21T03:17:03;7.70;92.30
6627;DHT22;3349;49.830;8.748;2024-02-21T03:19:30;7.70;92.50
6627;DHT22;3349;49.830;8.748;2024-02-21T03:21:57;7.60;92.40
6627;DHT22;3349;49.830;8.748;2024-02-21T03:24:23;7.60;92.80
6627;DHT22;3349;49.830;8.748;2024-02-21T03:26:50;7.60;92.80
6627;DHT22;3349;49.830;8.748;2024-02-21T03:29:17;7.60;93.50
6627;DHT22;3349;49.830;8.748;2024-02-21T03:31:43;7.50;93.40
6627;DHT22;3349;49.830;8.748;2024-02-21T03:34:11;7.50;93.70
6627;DHT22;3349;49.830;8.748;2024-02-21T03:36:38;7.50;93.80
6627;DHT22;3349;49.830;8.748;2024-02-21T03:39:05;7.40;94.20
6627;DHT22;3349;49.830;8.748;2024-02-21T03:41:33;7.40;94.40
6627;DHT22;3349;49.830;8.748;2024-02-21T03:44:00;7.40;94.40
6627;DHT22;3349;49.830;8.748;2024-02-21T03:46:27;7.40;94.70
6627;DHT22;3349;49.830;8.748;2024-02-21T03:48:53;7.30;94.80
6627;DHT22;3349;49.830;8.748;2024-02-21T03:51:21;7.30;95.10
6627;DHT22;3349;49.830;8.748;2024-02-21T03:53:48;7.30;95.60
6627;DHT22;3349;49.830;8.748;2024-02-21T03:56:15;7.30;95.50
6627;DHT22;3349;49.830;8.748;2024-02-21T03:58:41;7.30;95.60
6627;DHT22;3349;49.830;8.748;2024-02-21T04:01:08;7.30;95.60
6627;DHT22;3349;49.830;8.748;2024-02-21T04:03:35;7.40;95.60
6627;DHT22;3349;49.830;8.748;2024-02-21T04:06:01;7.40;95.60
6627;DHT22;3349;49.830;8.748;2024-02-21T04:08:29;7.40;95.60
6627;DHT22;3349;49.830;8.748;2024-02-21T04:10:56;7.40;95.60
6627;DHT22;3349;49.830;8.748;2024-02-21T04:13:23;7.50;95.60
6627;DHT22;3349;49.830;8.748;2024-02-21T04:15:49;7.50;95.80
6627;DHT22;3349;49.830;8.748;2024-02-21T04:18:16;7.50;95.00
6627;DHT22;3349;49.830;8.748;2024-02-21T04:20:43;7.60;94.60
6627;DHT22;3349;49.830;8.748;2024-02-21T04:23:09;7.60;94.50
6627;DHT22;3349;49.830;8.748;2024-02-21T04:25:37;7.60;93.90
6627;DHT22;3349;49.830;8.748;2024-02-21T04:28:05;7.70;93.70
6627;DHT22;3349;49.830;8.748;2024-02-21T04:30:38;7.70;93.30
6627;DHT22;3349;49.830;8.748;2024-02-21T04:33:05;7.70;93.30
6627;DHT22;3349;49.830;8.748;2024-02-21T04:35:32;7.60;93.20
6627;DHT22;3349;49.830;8.748;2024-02-21T04:37:58;7.70;93.00
6627;DHT22;3349;49.830;8.748;2024-02-21T04:40:25;7.70;92.50
6627;DHT22;3349;49.830;8.748;2024-02-21T04:42:53;7.70;92.60
6627;DHT22;3349;49.830;8.748;2024-02-21T04:45:20;7.70;92.50
6627;DHT22;3349;49.830;8.748;2024-02-21T04:47:47;7.70;92.00
6627;DHT22;3349;49.830;8.748;2024-02-21T04:50:13;7.70;91.50
6627;DHT22;3349;49.830;8.748;2024-02-21T04:52:40;7.70;90.70
6627;DHT22;3349;49.830;8.748;2024-02-21T04:55:07;7.70;90.10
6627;DHT22;3349;49.830;8.748;2024-02-21T04:57:34;7.70;90.30
6627;DHT22;3349;49.830;8.748;2024-02-21T05:00:03;7.70;90.70
6627;DHT22;3349;49.830;8.748;2024-02-21T05:02:30;7.60;90.40
6627;DHT22;3349;49.830;8.748;2024-02-21T05:04:56;7.70;90.90
6627;DHT22;3349;49.830;8.748;2024-02-21T05:07:23;7.60;90.90
6627;DHT22;3349;49.830;8.748;2024-02-21T05:09:50;7.60;90.60
6627;DHT22;3349;49.830;8.748;2024-02-21T05:12:16;7.60;90.40
6627;DHT22;3349;49.830;8.748;2024-02-21T05:14:43;7.60;89.20
6627;DHT22;3349;49.830;8.748;2024-02-21T05:17:11;7.60;88.80
6627;DHT22;3349;49.830;8.748;2024-02-21T05:19:37;7.60;88.80
6627;DHT22;3349;49.830;8.748;2024-02-21T05:22:04;7.60;88.60
6627;DHT22;3349;49.830;8.748;2024-02-21T05:24:31;7.60;87.70
6627;DHT22;3349;49.830;8.748;2024-02-21T05:26:58;7.60;87.40
6627;DHT22;3349;49.830;8.748;2024-02-21T05:29:24;7.50;87.10
6627;DHT22;3349;49.830;8.748;2024-02-21T05:31:57;7.50;87.70
6627;DHT22;3349;49.830;8.748;2024-02-21T05:34:26;7.50;88.10
6627;DHT22;3349;49.830;8.748;2024-02-21T05:36:52;7.50;88.70
6627;DHT22;3349;49.830;8.748;2024-02-21T05:39:19;7.50;89.20
6627;DHT22;3349;49.830;8.748;2024-02-21T05:41:48;7.50;87.80
6627;DHT22;3349;49.830;8.748;2024-02-21T05:44:15;7.50;87.40
6627;DHT22;3349;49.830;8.748;2024-02-21T05:46:42;7.50;87.20
6627;DHT22;3349;49.830;8.748;2024-02-21T05:49:08;7.40;87.50
6627;DHT22;3349;49.830;8.748;2024-02-21T05:51:36;7.40;88.00
6627;DHT22;3349;49.830;8.748;2024-02-21T05:54:03;7.40;88.80
6627;DHT22;3349;49.830;8.748;2024-02-21T05:56:30;7.40;89.70
6627;DHT22;3349;49.830;8.748;2024-02-21T05:58:56;7.40;90.00
6627;DHT22;3349;49.830;8.748;2024-02-21T06:01:23;7.40;90.00
6627;DHT22;3349;49.830;8.748;2024-02-21T06:03:50;7.30;90.10
6627;DHT22;3349;49.830;8.748;2024-02-21T06:06:16;7.30;89.90
6627;DHT22;3349;49.830;8.748;2024-02-21T06:08:44;7.30;90.40
6627;DHT22;3349;49.830;8.748;2024-02-21T06:11:11;7.30;90.60
6627;DHT22;3349;49.830;8.748;2024-02-21T06:13:38;7.20;90.50
6627;DHT22;3349;49.830;8.748;2024-02-21T06:16:06;7.20;90.90
6627;DHT22;3349;49.830;8.748;2024-02-21T06:18:35;7.20;91.10
6627;DHT22;3349;49.830;8.748;2024-02-21T06:21:02;7.30;91.30
6627;DHT22;3349;49.830;8.748;2024-02-21T06:23:29;7.30;91.40
6627;DHT22;3349;49.830;8.748;2024-02-21T06:25:57;7.30;91.50
6627;DHT22;3349;49.830;8.748;2024-02-21T06:28:24;7.30;91.80
6627;DHT22;3349;49.830;8.748;2024-02-21T06:30:50;7.30;91.80
6627;DHT22;3349;49.830;8.748;2024-02-21T06:33:17;7.30;91.80
6627;DHT22;3349;49.830;8.748;2024-02-21T06:35:48;7.30;90.90
6627;DHT22;3349;49.830;8.748;2024-02-21T06:38:17;7.30;91.10
6627;DHT22;3349;49.830;8.748;2024-02-21T06:40:44;7.30;91.30
6627;DHT22;3349;49.830;8.748;2024-02-21T06:43:17;7.20;91.10
6627;DHT22;3349;49.830;8.748;2024-02-21T06:45:43;7.20;91.20
6627;DHT22;3349;49.830;8.748;2024-02-21T06:48:12;7.20;91.60
6627;DHT22;3349;49.830;8.748;2024-02-21T06:50:39;7.10;91.70
6627;DHT22;3349;49.830;8.748;2024-02-21T06:53:06;7.10;92.20
6627;DHT22;3349;49.830;8.748;2024-02-21T06:55:33;7.10;92.60
6627;DHT22;3349;49.830;8.748;2024-02-21T06:57:59;7.10;92.70
6627;DHT22;3349;49.830;8.748;2024-02-21T07:00:28;7.10;92.80
6627;DHT22;3349;49.830;8.748;2024-02-21T07:02:55;7.10;93.00
6627;DHT22;3349;49.830;8.748;2024-02-21T07:05:22;7.10;93.10
6627;DHT22;3349;49.830;8.748;2024-02-21T07:07:48;7.10;92.90
6627;DHT22;3349;49.830;8.748;2024-02-21T07:10:15;7.20;93.10
6627;DHT22;3349;49.830;8.748;2024-02-21T07:12:42;7.20;92.80
6627;DHT22;3349;49.830;8.748;2024-02-21T07:15:09;7.20;92.90
6627;DHT22;3349;49.830;8.748;2024-02-21T07:17:37;7.20;93.00
6627;DHT22;3349;49.830;8.748;2024-02-21T07:20:04;7.20;93.00
6627;DHT22;3349;49.830;8.748;2024-02-21T07:22:31;7.30;93.10
6627;DHT22;3349;49.830;8.748;2024-02-21T07:24:58;7.30;92.70
6627;DHT22;3349;49.830;8.748;2024-02-21T07:27:24;7.30;92.70
6627;DHT22;3349;49.830;8.748;2024-02-21T07:29:53;7.30;92.50
6627;DHT22;3349;49.830;8.748;2024-02-21T07:32:20;7.40;92.70
6627;DHT22;3349;49.830;8.748;2024-02-21T07:34:48;7.40;92.50
6627;DHT22;3349;49.830;8.748;2024-02-21T07:37:15;7.40;92.30
6627;DHT22;3349;49.830;8.748;2024-02-21T07:39:41;7.40;92.40
6627;DHT22;3349;49.830;8.748;2024-02-21T07:42:08;7.40;92.20
6627;DHT22;3349;49.830;8.748;2024-02-21T07:44:34;7.40;92.00
6627;DHT22;3349;49.830;8.748;2024-02-21T07:47:01;7.50;91.90
6627;DHT22;3349;49.830;8.748;2024-02-21T07:49:28;7.50;91.90
6627;DHT22;3349;49.830;8.748;2024-02-21T07:51:56;7.60;91.20
6627;DHT22;3349;49.830;8.748;2024-02-21T07:54:22;7.70;90.40
6627;DHT22;3349;49.830;8.748;2024-02-21T07:56:49;7.80;90.10
6627;DHT22;3349;49.830;8.748;2024-02-21T07:59:16;7.90;89.80
6627;DHT22;3349;49.830;8.748;2024-02-21T08:01:43;8.00;88.00
6627;DHT22;3349;49.830;8.748;2024-02-21T08:04:11;8.10;86.80
6627;DHT22;3349;49.830;8.748;2024-02-21T08:06:37;8.20;85.20
6627;DHT22;3349;49.830;8.748;2024-02-21T08:09:05;8.30;85.10
6627;DHT22;3349;49.830;8.748;2024-02-21T08:11:32;8.30;82.50
6627;DHT22;3349;49.830;8.748;2024-02-21T08:13:59;8.20;82.50
6627;DHT22;3349;49.830;8.748;2024-02-21T08:16:26;8.30;82.30
6627;DHT22;3349;49.830;8.748;2024-02-21T08:18:53;8.30;82.40
6627;DHT22;3349;49.830;8.748;2024-02-21T08:21:20;8.30;82.30
6627;DHT22;3349;49.830;8.748;2024-02-21T08:23:46;8.40;81.40
6627;DHT22;3349;49.830;8.748;2024-02-21T08:26:18;8.30;80.70
6627;DHT22;3349;49.830;8.748;2024-02-21T08:28:45;8.30;80.50
6627;DHT22;3349;49.830;8.748;2024-02-21T08:31:18;8.30;81.10
6627;DHT22;3349;49.830;8.748;2024-02-21T08:33:45;8.30;80.70
6627;DHT22;3349;49.830;8.748;2024-02-21T08:36:17;8.40;79.80
6627;DHT22;3349;49.830;8.748;2024-02-21T08:38:44;8.40;79.80
6627;DHT22;3349;49.830;8.748;2024-02-21T08:41:10;8.40;79.60
6627;DHT22;3349;49.830;8.748;2024-02-21T08:43:38;8.50;79.50
6627;DHT22;3349;49.830;8.748;2024-02-21T08:46:05;8.50;79.70
6627;DHT22;3349;49.830;8.748;2024-02-21T08:48:32;8.50;79.30
6627;DHT22;3349;49.830;8.748;2024-02-21T08:50:58;8.60;78.90
6627;DHT22;3349;49.830;8.748;2024-02-21T08:53:25;8.70;78.10
6627;DHT22;3349;49.830;8.748;2024-02-21T08:55:52;8.70;78.30
6627;DHT22;3349;49.830;8.748;2024-02-21T08:58:18;8.60;78.00
6627;DHT22;3349;49.830;8.748;2024-02-21T09:00:48;8.80;82.70
6627;DHT22;3349;49.830;8.748;2024-02-21T09:03:14;8.80;77.40
6627;DHT22;3349;49.830;8.748;2024-02-21T09:05:43;8.70;77.00
6627;DHT22;3349;49.830;8.748;2024-02-21T09:08:09;8.80;77.80
6627;DHT22;3349;49.830;8.748;2024-02-21T09:10:36;8.80;76.80
6627;DHT22;3349;49.830;8.748;2024-02-21T09:13:03;8.70;77.10
6627;DHT22;3349;49.830;8.748;2024-02-21T09:15:30;8.70;77.10
6627;DHT22;3349;49.830;8.748;2024-02-21T09:17:58;8.80;76.50
6627;DHT22;3349;49.830;8.748;2024-02-21T09:20:25;9.00;76.50
6627;DHT22;3349;49.830;8.748;2024-02-21T09:22:51;9.10;75.90
6627;DHT22;3349;49.830;8.748;2024-02-21T09:25:18;9.20;75.50
6627;DHT22;3349;49.830;8.748;2024-02-21T09:27:45;9.30;74.40
6627;DHT22;3349;49.830;8.748;2024-02-21T09:30:12;9.40;73.90
6627;DHT22;3349;49.830;8.748;2024-02-21T09:32:39;9.50;73.30
6627;DHT22;3349;49.830;8.748;2024-02-21T09:35:08;9.60;72.70
6627;DHT22;3349;49.830;8.748;2024-02-21T09:37:35;9.70;72.00
6627;DHT22;3349;49.830;8.748;2024-02-21T09:40:01;9.80;72.30
6627;DHT22;3349;49.830;8.748;2024-02-21T09:42:36;9.80;71.40
6627;DHT22;3349;49.830;8.748;2024-02-21T09:45:07;9.90;71.40
6627;DHT22;3349;49.830;8.748;2024-02-21T09:47:42;10.10;70.60
6627;DHT22;3349;49.830;8.748;2024-02-21T09:50:12;10.10;68.30
6627;DHT22;3349;49.830;8.748;2024-02-21T09:52:40;10.10;69.30
6627;DHT22;3349;49.830;8.748;2024-02-21T09:55:09;10.20;68.90
6627;DHT22;3349;49.830;8.748;2024-02-21T09:57:38;10.10;67.20
6627;DHT22;3349;49.830;8.748;2024-02-21T10:00:06;10.10;67.70
6627;DHT22;3349;49.830;8.748;2024-02-21T10:02:34;10.20;68.30
6627;DHT22;3349;49.830;8.748;2024-02-21T10:05:00;10.30;67.40
6627;DHT22;3349;49.830;8.748;2024-02-21T10:07:30;10.60;66.20
6627;DHT22;3349;49.830;8.748;2024-02-21T10:10:01;10.90;65.90
6627;DHT22;3349;49.830;8.748;2024-02-21T10:12:28;11.00;64.70
6627;DHT22;3349;49.830;8.748;2024-02-21T10:15:00;11.00;62.50
6627;DHT22;3349;49.830;8.748;2024-02-21T10:17:27;11.10;62.80
6627;DHT22;3349;49.830;8.748;2024-02-21T10:19:53;11.00;63.10
6627;DHT22;3349;49.830;8.748;2024-02-21T10:22:20;11.10;61.60
6627;DHT22;3349;49.830;8.748;2024-02-21T10:24:48;11.20;61.60
6627;DHT22;3349;49.830;8.748;2024-02-21T10:27:15;11.20;61.60
6627;DHT22;3349;49.830;8.748;2024-02-21T10:29:41;11.10;62.10
6627;DHT22;3349;49.830;8.748;2024-02-21T10:32:09;11.00;62.20
6627;DHT22;3349;49.830;8.748;2024-02-21T10:34:38;10.90;62.70
6627;DHT22;3349;49.830;8.748;2024-02-21T10:37:06;11.00;62.30
6627;DHT22;3349;49.830;8.748;2024-02-21T10:39:33;11.10;61.50
6627;DHT22;3349;49.830;8.748;2024-02-21T10:42:03;11.20;61.80
6627;DHT22;3349;49.830;8.748;2024-02-21T10:44:31;11.20;61.70
6627;DHT22;3349;49.830;8.748;2024-02-21T10:46:58;11.10;61.70
6627;DHT22;3349;49.830;8.748;2024-02-21T10:49:26;10.80;62.10
6627;DHT22;3349;49.830;8.748;2024-02-21T10:51:56;11.00;62.80
6627;DHT22;3349;49.830;8.748;2024-02-21T10:57:08;11.00;62.10
6627;DHT22;3349;49.830;8.748;2024-02-21T10:59:37;11.20;62.10
6627;DHT22;3349;49.830;8.748;2024-02-21T11:02:07;11.20;61.60
6627;DHT22;3349;49.830;8.748;2024-02-21T11:04:35;11.20;60.50
6627;DHT22;3349;49.830;8.748;2024-02-21T11:07:03;11.20;60.80
6627;DHT22;3349;49.830;8.748;2024-02-21T11:09:31;11.10;61.60
6627;DHT22;3349;49.830;8.748;2024-02-21T11:12:01;11.30;61.10
6627;DHT22;3349;49.830;8.748;2024-02-21T11:14:30;11.30;61.70
6627;DHT22;3349;49.830;8.748;2024-02-21T11:17:01;11.40;62.10
6627;DHT22;3349;49.830;8.748;2024-02-21T11:19:29;11.30;61.30
6627;DHT22;3349;49.830;8.748;2024-02-21T11:21:57;11.40;61.00
6627;DHT22;3349;49.830;8.748;2024-02-21T11:24:28;11.40;60.80
6627;DHT22;3349;49.830;8.748;2024-02-21T11:26:55;11.50;60.10
6627;DHT22;3349;49.830;8.748;2024-02-21T11:29:25;11.30;60.10
6627;DHT22;3349;49.830;8.748;2024-02-21T11:31:53;11.20;61.10
6627;DHT22;3349;49.830;8.748;2024-02-21T11:34:20;11.40;61.90
6627;DHT22;3349;49.830;8.748;2024-02-21T11:36:47;11.60;60.90
6627;DHT22;3349;49.830;8.748;2024-02-21T11:39:22;12.00;59.30
6627;DHT22;3349;49.830;8.748;2024-02-21T11:42:01;12.30;58.30
6627;DHT22;3349;49.830;8.748;2024-02-21T11:44:28;12.30;58.30
6627;DHT22;3349;49.830;8.748;2024-02-21T11:46:56;12.30;58.30
6627;DHT22;3349;49.830;8.748;2024-02-21T11:49:24;12.20;58.20
6627;DHT22;3349;49.830;8.748;2024-02-21T11:51:58;12.20;58.20
6627;DHT22;3349;49.830;8.748;2024-02-21T11:54:25;12.10;58.60
6627;DHT22;3349;49.830;8.748;2024-02-21T11:56:52;11.90;58.70
6627;DHT22;3349;49.830;8.748;2024-02-21T11:59:18;11.90;58.90
6627;DHT22;3349;49.830;8.748;2024-02-21T12:01:46;11.80;58.80
6627;DHT22;3349;49.830;8.748;2024-02-21T12:04:14;11.60;59.00
6627;DHT22;3349;49.830;8.748;2024-02-21T12:06:43;11.50;58.90
6627;DHT22;3349;49.830;8.748;2024-02-21T12:09:09;11.50;59.40
6627;DHT22;3349;49.830;8.748;2024-02-21T12:11:36;11.50;59.10
6627;DHT22;3349;49.830;8.748;2024-02-21T12:14:03;11.40;58.90
6627;DHT22;3349;49.830;8.748;2024-02-21T12:16:31;11.30;59.50
6627;DHT22;3349;49.830;8.748;2024-02-21T12:18:57;11.20;59.70
6627;DHT22;3349;49.830;8.748;2024-02-21T12:21:26;11.40;59.30
6627;DHT22;3349;49.830;8.748;2024-02-21T12:23:54;11.50;59.30
6627;DHT22;3349;49.830;8.748;2024-02-21T12:26:21;11.60;59.30
6627;DHT22;3349;49.830;8.748;2024-02-21T12:28:47;11.80;59.00
6627;DHT22;3349;49.830;8.748;2024-02-21T12:31:14;11.80;57.90
6627;DHT22;3349;49.830;8.748;2024-02-21T12:33:41;11.90;58.00
6627;DHT22;3349;49.830;8.748;2024-02-21T12:36:08;12.10;57.90
6627;DHT22;3349;49.830;8.748;2024-02-21T12:38:36;12.30;56.80
6627;DHT22;3349;49.830;8.748;2024-02-21T12:41:03;12.20;57.00
6627;DHT22;3349;49.830;8.748;2024-02-21T12:43:30;12.70;55.90
6627;DHT22;3349;49.830;8.748;2024-02-21T12:45:57;12.70;55.60
6627;DHT22;3349;49.830;8.748;2024-02-21T12:48:23;12.90;54.90
6627;DHT22;3349;49.830;8.748;2024-02-21T12:50:50;13.00;54.60
6627;DHT22;3349;49.830;8.748;2024-02-21T12:53:17;13.00;54.30
6627;DHT22;3349;49.830;8.748;2024-02-21T12:55:45;12.70;55.10
6627;DHT22;3349;49.830;8.748;2024-02-21T12:58:12;12.60;54.80
6627;DHT22;3349;49.830;8.748;2024-02-21T13:00:40;12.40;55.70
6627;DHT22;3349;49.830;8.748;2024-02-21T13:03:06;12.30;55.90
6627;DHT22;3349;49.830;8.748;2024-02-21T13:05:35;12.20;55.70
6627;DHT22;3349;49.830;8.748;2024-02-21T13:08:01;12.20;56.30
6627;DHT22;3349;49.830;8.748;2024-02-21T13:10:28;12.10;56.00
6627;DHT22;3349;49.830;8.748;2024-02-21T13:12:56;12.10;55.90
6627;DHT22;3349;49.830;8.748;2024-02-21T13:15:23;11.90;57.00
6627;DHT22;3349;49.830;8.748;2024-02-21T13:17:50;11.80;57.30
6627;DHT22;3349;49.830;8.748;2024-02-21T13:20:16;11.60;57.00
6627;DHT22;3349;49.830;8.748;2024-02-21T13:22:43;11.50;57.70
6627;DHT22;3349;49.830;8.748;2024-02-21T13:25:10;11.40;57.60
6627;DHT22;3349;49.830;8.748;2024-02-21T13:27:40;11.40;58.00
6627;DHT22;3349;49.830;8.748;2024-02-21T13:30:09;11.40;57.60
6627;DHT22;3349;49.830;8.748;2024-02-21T13:32:36;11.50;57.80
6627;DHT22;3349;49.830;8.748;2024-02-21T13:35:03;11.50;57.70
6627;DHT22;3349;49.830;8.748;2024-02-21T13:37:31;11.40;58.20
6627;DHT22;3349;49.830;8.748;2024-02-21T13:39:58;11.50;57.70
6627;DHT22;3349;49.830;8.748;2024-02-21T13:42:24;11.40;57.60
6627;DHT22;3349;49.830;8.748;2024-02-21T13:44:53;11.50;57.70
6627;DHT22;3349;49.830;8.748;2024-02-21T13:47:21;11.50;57.80
6627;DHT22;3349;49.830;8.748;2024-02-21T13:49:48;11.50;57.70
6627;DHT22;3349;49.830;8.748;2024-02-21T13:52:15;11.40;58.10
6627;DHT22;3349;49.830;8.748;2024-02-21T13:54:42;11.30;58.20
6627;DHT22;3349;49.830;8.748;2024-02-21T13:57:09;11.40;58.60
6627;DHT22;3349;49.830;8.748;2024-02-21T13:59:35;11.50;58.30
6627;DHT22;3349;49.830;8.748;2024-02-21T14:02:02;11.60;57.80
6627;DHT22;3349;49.830;8.748;2024-02-21T14:04:30;11.70;57.80
6627;DHT22;3349;49.830;8.748;2024-02-21T14:06:57;11.80;57.90
6627;DHT22;3349;49.830;8.748;2024-02-21T14:09:24;11.70;58.20
6627;DHT22;3349;49.830;8.748;2024-02-21T14:11:51;11.80;57.90
6627;DHT22;3349;49.830;8.748;2024-02-21T14:14:17;11.80;57.90
6627;DHT22;3349;49.830;8.748;2024-02-21T14:16:44;11.80;57.90
6627;DHT22;3349;49.830;8.748;2024-02-21T14:19:13;11.90;58.00
6627;DHT22;3349;49.830;8.748;2024-02-21T14:21:41;12.00;57.40
6627;DHT22;3349;49.830;8.748;2024-02-21T14:24:07;11.80;57.40
6627;DHT22;3349;49.830;8.748;2024-02-21T14:26:34;11.80;57.70
6627;DHT22;3349;49.830;8.748;2024-02-21T14:29:02;11.70;57.80
6627;DHT22;3349;49.830;8.748;2024-02-21T14:31:30;11.60;57.80
6627;DHT22;3349;49.830;8.748;2024-02-21T14:33:57;11.60;57.80
6627;DHT22;3349;49.830;8.748;2024-02-21T14:36:25;11.50;57.70
6627;DHT22;3349;49.830;8.748;2024-02-21T14:38:53;11.40;57.60
6627;DHT22;3349;49.830;8.748;2024-02-21T14:41:20;11.30;57.50
6627;DHT22;3349;49.830;8.748;2024-02-21T14:43:47;11.30;57.50
6627;DHT22;3349;49.830;8.748;2024-02-21T14:46:13;11.20;57.40
6627;DHT22;3349;49.830;8.748;2024-02-21T14:48:40;11.20;57.50
6627;DHT22;3349;49.830;8.748;2024-02-21T14:51:06;11.20;58.10
6627;DHT22;3349;49.830;8.748;2024-02-21T14:53:33;11.20;57.50
6627;DHT22;3349;49.830;8.748;2024-02-21T14:56:01;11.20;57.90
6627;DHT22;3349;49.830;8.748;2024-02-21T14:58:28;11.10;57.40
6627;DHT22;3349;49.830;8.748;2024-02-21T15:00:56;11.10;58.30
6627;DHT22;3349;49.830;8.748;2024-02-21T15:03:23;11.10;58.20
6627;DHT22;3349;49.830;8.748;2024-02-21T15:05:52;11.10;58.40
6627;DHT22;3349;49.830;8.748;2024-02-21T15:08:19;11.10;58.30
6627;DHT22;3349;49.830;8.748;2024-02-21T15:10:46;11.10;58.30
6627;DHT22;3349;49.830;8.748;2024-02-21T15:13:14;11.10;57.30
6627;DHT22;3349;49.830;8.748;2024-02-21T15:15:40;11.10;57.30
6627;DHT22;3349;49.830;8.748;2024-02-21T15:18:07;11.10;57.30
6627;DHT22;3349;49.830;8.748;2024-02-21T15:20:34;11.10;57.30
6627;DHT22;3349;49.830;8.748;2024-02-21T15:23:02;11.00;57.20
6627;DHT22;3349;49.830;8.748;2024-02-21T15:25:30;11.00;57.20
6627;DHT22;3349;49.830;8.748;2024-02-21T15:27:56;10.90;57.20
6627;DHT22;3349;49.830;8.748;2024-02-21T15:30:26;10.90;57.20
6627;DHT22;3349;49.830;8.748;2024-02-21T15:32:57;10.80;57.10
6627;DHT22;3349;49.830;8.748;2024-02-21T15:35:27;10.70;57.90
6627;DHT22;3349;49.830;8.748;2024-02-21T15:37:53;10.70;57.00
6627;DHT22;3349;49.830;8.748;2024-02-21T15:40:21;10.60;57.30
6627;DHT22;3349;49.830;8.748;2024-02-21T15:42:47;10.60;56.90
6627;DHT22;3349;49.830;8.748;2024-02-21T15:45:14;10.60;57.30
6627;DHT22;3349;49.830;8.748;2024-02-21T15:47:42;10.60;57.80
6627;DHT22;3349;49.830;8.748;2024-02-21T15:50:09;10.60;57.00
6627;DHT22;3349;49.830;8.748;2024-02-21T15:52:36;10.50;57.20
6627;DHT22;3349;49.830;8.748;2024-02-21T15:55:04;10.50;56.80
6627;DHT22;3349;49.830;8.748;2024-02-21T15:57:32;10.50;57.20
6627;DHT22;3349;49.830;8.748;2024-02-21T15:59:59;10.50;57.60
6627;DHT22;3349;49.830;8.748;2024-02-21T16:02:25;10.40;56.70
6627;DHT22;3349;49.830;8.748;2024-02-21T16:04:53;10.40;56.70
6627;DHT22;3349;49.830;8.748;2024-02-21T16:07:21;10.40;56.70
6627;DHT22;3349;49.830;8.748;2024-02-21T16:09:48;10.30;56.60
6627;DHT22;3349;49.830;8.748;2024-02-21T16:12:15;10.30;56.60
6627;DHT22;3349;49.830;8.748;2024-02-21T16:14:41;10.30;56.60